createdAt,value
2022-12-19T06:49:05.202Z,76.18
2022-12-19T06:51:31.683Z,74.60
2022-12-19T06:53:58.186Z,77.33
2022-12-19T06:56:25.340Z,74.07
2022-12-19T06:58:51.999Z,74.90
2022-12-19T07:01:40.025Z,80.47
2022-12-19T07:04:07.768Z,81.35
2022-12-19T07:06:34.291Z,77.60
2022-12-19T07:09:05.090Z,76.32
2022-12-19T07:11:31.555Z,71.10
2022-12-19T07:13:58.064Z,66.35
2022-12-19T07:16:25.661Z,75.38
2022-12-19T07:18:52.206Z,76.80
2022-12-19T07:21:18.975Z,77.85
2022-12-19T07:23:45.999Z,67.50
2022-12-19T07:26:12.542Z,77.13
2022-12-19T07:28:39.272Z,71.13
2022-12-19T07:31:06.009Z,67.00
2022-12-19T07:33:32.587Z,69.60
2022-12-19T07:36:01.475Z,65.30
2022-12-19T07:38:28.155Z,72.65
2022-12-19T07:40:54.601Z,51.90
2022-12-19T07:43:23.143Z,73.20
2022-12-19T07:45:54.891Z,59.78
2022-12-19T07:48:21.950Z,62.35
2022-12-19T07:50:50.012Z,62.42
2022-12-19T07:53:16.540Z,65.22
2022-12-19T07:55:43.133Z,58.10
2022-12-19T07:58:10.541Z,60.08
2022-12-19T08:00:37.580Z,63.10
2022-12-19T08:03:04.420Z,69.35
2022-12-19T08:05:31.157Z,69.00
2022-12-19T08:07:58.243Z,64.33
2022-12-19T08:10:24.856Z,67.10
2022-12-19T08:12:51.540Z,65.15
2022-12-19T08:15:18.193Z,53.88
2022-12-19T08:17:47.571Z,53.17
2022-12-19T08:20:14.094Z,58.93
2022-12-19T08:22:40.603Z,54.03
2022-12-19T08:25:07.807Z,58.28
2022-12-19T08:27:35.008Z,49.72
2022-12-19T08:30:01.558Z,59.90
2022-12-19T08:32:28.135Z,55.47
2022-12-19T08:34:56.943Z,47.45
2022-12-19T08:37:23.459Z,43.58
2022-12-19T08:39:50.030Z,49.20
2022-12-19T08:42:16.542Z,48.58
2022-12-19T08:44:46.046Z,44.60
2022-12-19T08:47:13.127Z,48.10
2022-12-19T08:49:39.664Z,43.72
2022-12-19T08:52:06.228Z,43.60
2022-12-19T08:54:32.767Z,38.28
2022-12-19T08:56:59.267Z,49.43
2022-12-19T08:59:31.188Z,45.53
2022-12-19T09:02:00.109Z,39.60
2022-12-19T09:06:02.217Z,47.08
2022-12-19T09:07:15.719Z,39.15
2022-12-19T09:09:43.128Z,32.13
2022-12-19T09:12:09.630Z,40.85
2022-12-19T09:14:36.351Z,35.55
2022-12-19T09:17:04.505Z,40.03
2022-12-19T09:19:31.782Z,37.50
2022-12-19T09:21:58.402Z,40.80
2022-12-19T09:24:25.067Z,41.08
2022-12-19T09:26:51.646Z,38.40
2022-12-19T09:29:20.602Z,35.85
2022-12-19T09:31:55.412Z,45.88
2022-12-19T09:34:37.571Z,42.10
2022-12-19T09:37:10.373Z,43.20
2022-12-19T09:39:42.967Z,42.00
2022-12-19T09:42:50.133Z,39.45
2022-12-19T09:45:32.174Z,39.28
2022-12-19T09:48:01.469Z,40.47
2022-12-19T09:50:46.852Z,39.25
2022-12-19T09:53:25.250Z,46.08
2022-12-19T09:55:52.865Z,36.97
2022-12-19T09:58:33.174Z,40.47
2022-12-19T10:01:02.975Z,37.77
2022-12-19T10:03:40.536Z,39.35
2022-12-19T10:07:18.701Z,40.13
2022-12-19T10:11:44.298Z,43.38
2022-12-19T10:12:45.360Z,37.25
2022-12-19T10:15:24.953Z,35.70
2022-12-19T10:18:30.384Z,42.03
2022-12-19T10:21:05.918Z,36.83
2022-12-19T10:23:35.404Z,34.13
2022-12-19T10:26:12.893Z,42.03
2022-12-19T10:29:10.279Z,37.00
2022-12-19T10:31:43.097Z,34.92
2022-12-19T10:34:32.086Z,35.75
2022-12-19T10:37:24.418Z,42.05
2022-12-19T10:40:15.772Z,36.80
2022-12-19T10:42:57.391Z,34.27
2022-12-19T10:45:30.895Z,38.63
2022-12-19T10:47:58.011Z,36.53
2022-12-19T10:50:29.626Z,39.10
2022-12-19T10:53:07.286Z,32.58
2022-12-19T10:55:46.724Z,43.63
2022-12-19T10:58:28.022Z,31.20
2022-12-19T11:00:54.492Z,37.42
2022-12-19T11:03:21.183Z,31.52
2022-12-19T11:05:57.712Z,34.15
2022-12-19T11:08:29.566Z,36.17
2022-12-19T11:13:11.920Z,36.03
2022-12-19T11:19:33.883Z,36.78
2022-12-19T11:20:09.407Z,38.65
2022-12-19T11:29:25.475Z,41.10
2022-12-19T11:29:32.821Z,33.30
2022-12-19T11:29:44.433Z,39.13
2022-12-19T11:30:46.599Z,42.85
2022-12-19T11:34:03.915Z,35.90
2022-12-19T11:36:36.705Z,36.23
2022-12-19T11:39:08.398Z,34.70
2022-12-19T11:42:12.595Z,38.53
2022-12-19T11:44:53.530Z,36.92
2022-12-19T11:47:32.400Z,38.92
2022-12-19T11:50:03.194Z,42.07
2022-12-19T11:55:53.229Z,40.65
2022-12-19T11:58:22.474Z,39.20
2022-12-19T12:01:27.064Z,39.10
2022-12-19T12:04:21.449Z,36.03
2022-12-19T12:06:51.456Z,32.75
2022-12-19T12:14:14.890Z,40.13
2022-12-19T12:17:28.190Z,38.53
2022-12-19T12:28:42.847Z,43.65
2022-12-19T12:31:16.858Z,36.97
2022-12-19T12:31:21.385Z,40.47
2022-12-19T12:31:46.190Z,46.17
2022-12-19T12:31:50.062Z,35.00
2022-12-19T12:35:33.276Z,43.28
2022-12-19T12:36:00.032Z,39.97
2022-12-19T12:38:22.761Z,36.15
2022-12-19T12:41:05.785Z,42.53
2022-12-19T12:44:01.777Z,41.03
2022-12-19T12:46:33.116Z,40.45
2022-12-19T12:49:38.328Z,41.97
2022-12-19T12:52:08.355Z,36.03
2022-12-19T12:54:39.722Z,36.45
2022-12-19T12:57:06.974Z,43.05
2022-12-19T12:59:33.498Z,39.60
2022-12-19T13:02:08.089Z,35.60
2022-12-19T13:04:39.762Z,42.53
2022-12-19T13:07:32.506Z,38.63
2022-12-19T13:10:14.230Z,36.83
2022-12-19T13:13:01.036Z,38.33
2022-12-19T13:15:27.510Z,41.63
2022-12-19T13:17:53.976Z,38.47
2022-12-19T13:20:29.524Z,39.33
2022-12-19T13:22:59.073Z,40.90
2022-12-19T13:25:35.472Z,37.35
2022-12-19T13:28:01.942Z,42.20
2022-12-19T13:30:46.500Z,39.78
2022-12-19T13:33:19.538Z,37.05
2022-12-19T13:39:06.266Z,39.42
2022-12-19T13:39:51.157Z,35.70
2022-12-19T13:42:00.035Z,33.93
2022-12-19T13:44:26.593Z,41.20
2022-12-19T13:46:55.202Z,42.58
2022-12-19T13:49:35.034Z,41.88
2022-12-19T13:52:04.850Z,38.15
2022-12-19T13:54:37.132Z,42.50
2022-12-19T13:57:22.170Z,40.65
2022-12-19T14:00:00.588Z,40.53
2022-12-19T14:02:44.354Z,39.00
2022-12-19T14:06:05.771Z,37.55
2022-12-19T14:08:24.620Z,41.17
2022-12-19T14:11:33.436Z,41.15
2022-12-19T14:14:10.752Z,37.67
2022-12-19T14:16:45.177Z,33.20
2022-12-19T14:19:23.538Z,36.58
2022-12-19T14:22:11.324Z,38.70
2022-12-19T14:24:36.957Z,41.22
2022-12-19T14:28:19.133Z,40.90
2022-12-19T14:30:27.990Z,41.50
2022-12-19T14:33:46.229Z,38.83
2022-12-19T14:36:12.225Z,37.37
2022-12-19T14:39:22.535Z,42.80
2022-12-19T14:41:47.968Z,45.90
2022-12-19T14:51:51.391Z,43.05
2022-12-19T14:54:10.726Z,41.20
2022-12-19T14:54:21.095Z,42.50
2022-12-19T14:54:34.889Z,43.88
2022-12-19T14:56:17.493Z,44.05
2022-12-19T14:58:52.174Z,43.00
2022-12-19T15:01:29.090Z,44.58
2022-12-19T15:04:51.191Z,43.03
2022-12-19T15:07:09.518Z,30.33
2022-12-19T15:11:05.182Z,43.60
2022-12-19T15:14:54.990Z,46.60
2022-12-19T15:16:34.617Z,38.53
2022-12-19T15:19:07.385Z,44.53
2022-12-19T15:21:33.850Z,44.28
2022-12-19T15:24:00.346Z,39.15
2022-12-19T15:26:31.277Z,47.47
2022-12-19T15:28:58.106Z,46.13
2022-12-19T15:31:35.382Z,43.70
2022-12-19T15:34:40.469Z,48.85
2022-12-19T15:37:09.602Z,37.83
2022-12-19T15:39:36.048Z,39.17
2022-12-19T15:42:03.086Z,43.72
2022-12-19T15:44:41.339Z,44.00
2022-12-19T15:47:19.584Z,45.08
2022-12-19T15:49:46.454Z,37.53
2022-12-19T15:52:18.873Z,36.78
2022-12-19T15:54:48.912Z,38.58
2022-12-19T15:57:38.485Z,39.87
2022-12-19T16:00:19.831Z,44.35
2022-12-19T16:03:22.230Z,41.53
2022-12-19T16:05:33.801Z,46.03
2022-12-19T16:08:00.383Z,41.10
2022-12-19T16:10:27.129Z,41.43
2022-12-19T16:12:55.815Z,45.55
2022-12-19T16:15:29.468Z,45.20
2022-12-19T16:17:57.087Z,40.95
2022-12-19T16:20:26.848Z,44.33
2022-12-19T16:22:53.636Z,43.93
2022-12-19T16:25:20.293Z,43.45
2022-12-19T16:27:57.473Z,38.15
2022-12-19T16:30:28.325Z,32.25
2022-12-19T16:32:54.899Z,46.55
2022-12-19T16:36:02.260Z,38.77
2022-12-19T16:38:15.355Z,43.33
2022-12-19T16:40:42.305Z,43.67
2022-12-19T16:43:31.562Z,46.55
2022-12-19T16:46:01.588Z,45.90
2022-12-19T16:48:32.247Z,42.17
2022-12-19T16:50:59.325Z,41.28
2022-12-19T16:53:25.940Z,56.22
2022-12-19T16:55:53.421Z,45.83
2022-12-19T16:58:21.873Z,51.20
2022-12-19T17:00:50.090Z,47.03
2022-12-19T17:03:28.782Z,50.22
2022-12-19T17:05:55.772Z,41.95
2022-12-19T17:08:23.009Z,46.38
2022-12-19T17:10:49.655Z,44.60
2022-12-19T17:13:17.752Z,41.40
2022-12-19T17:15:46.516Z,49.70
2022-12-19T17:18:20.873Z,44.85
2022-12-19T17:20:47.402Z,43.95
2022-12-19T17:23:16.544Z,45.10
2022-12-19T17:25:43.401Z,46.97
2022-12-19T17:28:10.430Z,43.13
2022-12-19T17:30:38.092Z,46.05
2022-12-19T17:33:04.937Z,46.28
2022-12-19T17:35:35.378Z,44.95
2022-12-19T17:38:02.155Z,48.33
2022-12-19T17:40:31.207Z,44.42
2022-12-19T17:42:58.539Z,44.05
2022-12-19T17:45:27.835Z,47.63
2022-12-19T17:48:02.106Z,40.28
2022-12-19T17:50:38.842Z,49.17
2022-12-19T17:53:05.952Z,42.53
2022-12-19T17:55:33.395Z,42.65
2022-12-19T17:58:00.056Z,49.03
2022-12-19T18:00:30.699Z,50.45
2022-12-19T18:03:00.744Z,53.20
2022-12-19T18:05:29.524Z,43.92
2022-12-19T18:07:56.057Z,47.63
2022-12-19T18:10:24.912Z,44.22
2022-12-19T18:12:51.964Z,49.33
2022-12-19T18:15:19.406Z,49.03
2022-12-19T18:17:47.953Z,44.08
2022-12-19T18:20:35.530Z,43.35
2022-12-19T18:23:02.046Z,51.40
2022-12-19T18:25:31.057Z,41.08
2022-12-19T18:27:58.587Z,41.50
2022-12-19T18:30:25.729Z,43.17
2022-12-19T18:32:58.033Z,43.33
2022-12-19T18:35:31.101Z,44.60
2022-12-19T18:38:00.126Z,44.35
2022-12-19T18:40:31.299Z,39.43
2022-12-19T18:42:58.339Z,41.70
2022-12-19T18:45:35.346Z,42.42
2022-12-19T18:48:03.257Z,44.00
2022-12-19T18:50:29.868Z,45.95
2022-12-19T18:52:56.899Z,44.20
2022-12-19T18:55:25.940Z,48.60
2022-12-19T18:57:52.500Z,48.13
2022-12-19T19:00:21.542Z,45.92
2022-12-19T19:02:59.699Z,44.30
2022-12-19T19:05:28.273Z,49.90
2022-12-19T19:07:56.932Z,48.33
2022-12-19T19:10:31.741Z,50.17
2022-12-19T19:13:00.166Z,44.72
2022-12-19T19:15:32.093Z,43.50
2022-12-19T19:18:01.048Z,43.87
2022-12-19T19:20:29.304Z,45.08
2022-12-19T19:22:55.966Z,43.15
2022-12-19T19:25:22.541Z,44.90
2022-12-19T19:27:50.261Z,46.63
2022-12-19T19:30:17.009Z,51.33
2022-12-19T19:32:47.059Z,46.85
2022-12-19T19:35:16.330Z,43.55
2022-12-19T19:37:44.776Z,47.30
2022-12-19T19:40:12.052Z,46.88
2022-12-19T19:42:38.544Z,46.60
2022-12-19T19:45:05.879Z,47.72
2022-12-19T19:47:36.127Z,53.75
2022-12-19T19:50:06.512Z,49.47
2022-12-19T19:52:33.621Z,53.08
2022-12-19T19:55:01.112Z,50.33
2022-12-19T19:57:27.602Z,45.25
2022-12-19T19:59:54.157Z,50.50
2022-12-19T20:02:20.891Z,46.67
2022-12-19T20:04:47.655Z,49.55
2022-12-19T20:07:15.377Z,49.57
2022-12-19T20:09:41.840Z,55.22
2022-12-19T20:12:08.410Z,47.15
2022-12-19T20:14:34.988Z,49.45
2022-12-19T20:17:01.524Z,48.25
2022-12-19T20:19:28.050Z,56.07
2022-12-19T20:21:54.591Z,45.05
2022-12-19T20:24:21.070Z,48.33
2022-12-19T20:26:47.791Z,45.83
2022-12-19T20:29:14.348Z,50.22
2022-12-19T20:31:41.724Z,53.97
2022-12-19T20:34:08.319Z,51.25
2022-12-19T20:36:34.856Z,49.70
2022-12-19T20:39:04.804Z,54.40
2022-12-19T20:41:31.343Z,53.50
2022-12-19T20:43:58.028Z,53.37
2022-12-19T20:46:24.676Z,52.70
2022-12-19T20:48:51.483Z,53.58
